createdAt,value
2023-01-06T00:02:18.664Z,98360.63
2023-01-06T00:06:28.076Z,98358.44
2023-01-06T00:10:32.661Z,98364.00
2023-01-06T00:14:35.870Z,98364.28
2023-01-06T00:18:39.794Z,98361.81
2023-01-06T00:22:44.823Z,98364.00
2023-01-06T00:26:47.993Z,98369.88
2023-01-06T00:30:51.025Z,98366.53
2023-01-06T00:34:54.308Z,98368.22
2023-01-06T00:38:58.917Z,98362.78
2023-01-06T00:43:02.155Z,98366.41
2023-01-06T00:47:08.220Z,98373.03
2023-01-06T00:51:11.221Z,98363.50
2023-01-06T00:55:15.859Z,98365.97
2023-01-06T00:59:23.544Z,98356.09
2023-01-06T01:03:27.129Z,98372.28
2023-01-06T01:07:30.325Z,98370.25
2023-01-06T01:12:04.043Z,98376.53
2023-01-06T01:16:08.441Z,98380.50
2023-01-06T01:20:12.424Z,98386.41
2023-01-06T01:24:16.370Z,98374.78
2023-01-06T01:28:20.706Z,98374.38
2023-01-06T01:32:24.154Z,98377.50
2023-01-06T01:36:27.547Z,98379.84
2023-01-06T01:40:30.563Z,98378.59
2023-01-06T01:45:07.273Z,98386.00
2023-01-06T01:49:15.978Z,98367.13
2023-01-06T01:53:24.026Z,98377.00
2023-01-06T01:57:31.749Z,98363.81
2023-01-06T02:01:36.930Z,98371.47
2023-01-06T02:05:43.903Z,98366.13
2023-01-06T02:09:54.464Z,98364.50
2023-01-06T02:14:09.417Z,98355.06
2023-01-06T02:18:29.117Z,98348.50
2023-01-06T02:22:57.422Z,98344.63
2023-01-06T02:27:18.124Z,98346.84
2023-01-06T02:31:52.714Z,98356.56
2023-01-06T02:36:14.733Z,98339.59
2023-01-06T02:40:31.306Z,98344.25
2023-01-06T02:44:46.318Z,98341.09
2023-01-06T02:49:00.931Z,98336.44
2023-01-06T02:53:12.974Z,98330.94
2023-01-06T02:57:22.347Z,98322.16
2023-01-06T03:01:30.211Z,98324.38
2023-01-06T03:05:37.515Z,98329.28
2023-01-06T03:09:42.267Z,98320.56
2023-01-06T03:13:50.712Z,98319.44
2023-01-06T03:17:54.565Z,98313.97
2023-01-06T03:21:59.134Z,98315.03
2023-01-06T03:26:05.243Z,98313.00
2023-01-06T03:30:11.993Z,98299.00
2023-01-06T03:34:23.877Z,98291.75
2023-01-06T03:38:40.428Z,98296.97
2023-01-06T03:43:14.208Z,98290.38
2023-01-06T03:47:27.018Z,98295.28
2023-01-06T03:51:38.407Z,98294.72
2023-01-06T03:55:46.666Z,98293.06
2023-01-06T03:59:55.972Z,98284.59
2023-01-06T04:03:59.500Z,98287.88
2023-01-06T04:08:03.022Z,98283.50
2023-01-06T04:12:28.868Z,98278.13
2023-01-06T04:16:34.158Z,98275.25
2023-01-06T04:20:37.729Z,98275.25
2023-01-06T04:24:40.711Z,98281.28
2023-01-06T04:28:44.028Z,98281.94
2023-01-06T04:32:48.761Z,98273.03
2023-01-06T04:36:52.332Z,98272.88
2023-01-06T04:40:55.283Z,98273.72
2023-01-06T04:44:58.677Z,98270.16
2023-01-06T04:49:03.108Z,98271.81
2023-01-06T04:53:07.241Z,98262.63
2023-01-06T04:57:10.285Z,98272.47
2023-01-06T05:01:15.014Z,98271.66
2023-01-06T05:05:19.484Z,98274.94
2023-01-06T05:09:22.701Z,98274.94
2023-01-06T05:13:26.050Z,98278.13
2023-01-06T05:17:29.465Z,98282.34
2023-01-06T05:21:34.123Z,98277.00
2023-01-06T05:25:37.101Z,98272.75
2023-01-06T05:29:40.517Z,98266.72
2023-01-06T05:33:44.033Z,98275.22
2023-01-06T05:37:48.619Z,98276.16
2023-01-06T05:41:51.859Z,98271.94
2023-01-06T05:45:55.821Z,98280.72
2023-01-06T05:49:59.123Z,98291.13
2023-01-06T05:54:04.121Z,98286.88
2023-01-06T05:58:07.320Z,98282.88
2023-01-06T06:02:10.726Z,98299.09
2023-01-06T06:06:13.974Z,98289.47
2023-01-06T06:10:18.816Z,98285.94
2023-01-06T06:14:21.912Z,98284.25
2023-01-06T06:18:26.885Z,98286.88
2023-01-06T06:22:29.916Z,98292.06
2023-01-06T06:26:34.647Z,98289.47
2023-01-06T06:30:38.100Z,98292.19
2023-01-06T06:34:41.163Z,98282.63
2023-01-06T06:38:44.894Z,98281.78
2023-01-06T06:42:53.821Z,98283.47
2023-01-06T06:46:57.403Z,98268.91
2023-01-06T06:51:01.393Z,98270.84
2023-01-06T06:55:05.175Z,98267.53
2023-01-06T06:59:09.507Z,98273.88
2023-01-06T07:03:12.693Z,98271.69
2023-01-06T07:07:15.628Z,98270.34
2023-01-06T07:11:19.050Z,98277.59
2023-01-06T07:15:23.985Z,98282.13
2023-01-06T07:19:26.919Z,98288.44
2023-01-06T07:23:30.867Z,98292.00
2023-01-06T07:27:33.899Z,98293.66
2023-01-06T07:31:38.922Z,98296.91
2023-01-06T07:35:44.546Z,98292.41
2023-01-06T07:39:47.832Z,98287.59
2023-01-06T07:43:50.867Z,98286.34
2023-01-06T07:53:19.840Z,98276.31
2023-01-06T07:57:22.974Z,98278.94
2023-01-06T08:01:26.308Z,98271.13
2023-01-06T08:05:30.708Z,98268.66
2023-01-06T08:09:34.277Z,98266.19
2023-01-06T08:13:38.449Z,98262.63
2023-01-06T08:17:42.205Z,98270.16
2023-01-06T08:21:46.990Z,98264.66
2023-01-06T08:25:50.235Z,98269.47
2023-01-06T08:29:54.929Z,98262.06
2023-01-06T08:33:58.374Z,98251.88
2023-01-06T08:38:03.410Z,98247.72
2023-01-06T08:42:06.914Z,98256.59
2023-01-06T08:46:13.445Z,98265.47
2023-01-06T08:50:16.596Z,98261.91
2023-01-06T08:54:21.355Z,98276.44
2023-01-06T08:58:24.917Z,98273.41
2023-01-06T09:02:30.883Z,98278.53
2023-01-06T09:06:34.910Z,98265.44
2023-01-06T09:10:40.807Z,98268.38
2023-01-06T09:14:44.065Z,98274.19
2023-01-06T09:18:50.490Z,98269.41
2023-01-06T09:22:53.462Z,98266.56
2023-01-06T09:26:58.048Z,98259.81
2023-01-06T09:31:01.913Z,98259.34
2023-01-06T09:35:05.370Z,98257.94
2023-01-06T09:39:08.777Z,98257.31
2023-01-06T09:43:23.496Z,98250.22
2023-01-06T09:47:32.173Z,98250.00
2023-01-06T09:51:39.876Z,98252.19
2023-01-06T09:55:47.701Z,98249.16
2023-01-06T09:59:58.648Z,98248.75
2023-01-06T10:04:02.155Z,98239.47
2023-01-06T10:08:14.225Z,98239.00
2023-01-06T10:12:32.528Z,98230.50
2023-01-06T10:16:52.868Z,98221.50
2023-01-06T10:21:02.361Z,98218.53
2023-01-06T10:25:14.649Z,98216.44
2023-01-06T10:29:19.954Z,98209.59
2023-01-06T10:37:42.611Z,98194.78
2023-01-06T10:41:52.187Z,98193.16
2023-01-06T10:45:55.745Z,98185.00
2023-01-06T10:50:01.876Z,98183.41
2023-01-06T10:54:09.607Z,98179.03
2023-01-06T10:58:29.949Z,98166.44
2023-01-06T11:02:33.224Z,98175.91
2023-01-06T11:06:40.528Z,98164.81
2023-01-06T11:10:47.121Z,98162.72
2023-01-06T11:14:57.260Z,98164.69
2023-01-06T11:19:04.751Z,98162.56
2023-01-06T11:23:21.817Z,98162.09
2023-01-06T11:27:25.005Z,98159.47
2023-01-06T11:31:29.676Z,98154.25
2023-01-06T11:35:35.433Z,98166.63
2023-01-06T11:39:43.990Z,98157.91
2023-01-06T11:43:50.581Z,98159.19
2023-01-06T11:47:56.935Z,98158.19
2023-01-06T11:52:02.034Z,98160.16
2023-01-06T11:56:09.167Z,98152.31
2023-01-06T12:00:38.272Z,98141.72
2023-01-06T12:04:45.801Z,98148.41
2023-01-06T12:08:57.983Z,98152.53
2023-01-06T12:13:02.573Z,98155.66
2023-01-06T12:17:12.633Z,98159.56
2023-01-06T12:21:23.579Z,98151.78
2023-01-06T12:25:31.128Z,98151.13
2023-01-06T12:29:36.988Z,98149.50
2023-01-06T12:33:47.070Z,98154.06
2023-01-06T12:37:55.201Z,98144.28
2023-01-06T12:42:03.909Z,98132.66
2023-01-06T12:46:16.926Z,98132.16
2023-01-06T12:50:30.256Z,98131.69
2023-01-06T12:54:36.705Z,98126.91
2023-01-06T12:58:51.007Z,98136.41
2023-01-06T13:03:10.483Z,98132.97
2023-01-06T13:07:28.991Z,98128.91
2023-01-06T13:11:44.500Z,98117.47
2023-01-06T13:15:48.431Z,98115.00
2023-01-06T13:19:57.939Z,98109.41
2023-01-06T13:24:22.899Z,98112.69
2023-01-06T13:28:37.460Z,98108.38
2023-01-06T13:33:02.221Z,98109.16
2023-01-06T13:37:29.878Z,98113.34
2023-01-06T13:41:38.600Z,98107.75
2023-01-06T13:45:44.856Z,98111.09
2023-01-06T13:49:55.524Z,98113.53
2023-01-06T13:54:05.897Z,98104.69
2023-01-06T13:58:37.581Z,98108.69
2023-01-06T14:03:22.099Z,98107.91
2023-01-06T14:07:40.843Z,98109.69
2023-01-06T14:11:54.657Z,98123.25
2023-01-06T14:16:06.845Z,98126.38
2023-01-06T14:20:27.921Z,98122.47
2023-01-06T14:24:36.870Z,98125.59
2023-01-06T14:28:41.487Z,98129.53
2023-01-06T14:33:26.150Z,98132.81
2023-01-06T14:37:40.594Z,98149.13
2023-01-06T14:41:50.680Z,98158.25
2023-01-06T14:45:59.411Z,98161.81
2023-01-06T14:50:10.494Z,98158.78
2023-01-06T14:54:22.807Z,98151.47
2023-01-06T14:58:36.259Z,98165.09
2023-01-06T15:02:46.854Z,98164.16
2023-01-06T15:07:00.913Z,98150.28
2023-01-06T15:11:20.337Z,98142.78
2023-01-06T15:15:34.535Z,98131.19
2023-01-06T15:19:39.464Z,98131.44
2023-01-06T15:23:47.621Z,98124.66
2023-01-06T15:27:53.650Z,98128.19
2023-01-06T15:31:58.047Z,98119.81
2023-01-06T15:36:07.642Z,98116.84
2023-01-06T15:40:22.062Z,98115.94
2023-01-06T15:44:30.501Z,98113.13
2023-01-06T15:48:51.343Z,98103.81
2023-01-06T15:52:58.162Z,98098.38
2023-01-06T15:57:16.150Z,98101.13
2023-01-06T16:01:27.292Z,98103.03
2023-01-06T16:05:42.247Z,98123.94
2023-01-06T16:10:03.325Z,98132.84
2023-01-06T16:14:28.513Z,98142.69
2023-01-06T16:18:36.742Z,98152.00
2023-01-06T16:22:51.975Z,98169.09
2023-01-06T16:26:59.860Z,98176.84
2023-01-06T16:31:08.515Z,98175.91
2023-01-06T16:35:17.312Z,98183.38
2023-01-06T16:39:23.475Z,98183.66
2023-01-06T16:43:28.415Z,98188.31
2023-01-06T16:47:31.974Z,98189.25
2023-01-06T16:51:35.487Z,98192.94
2023-01-06T16:55:41.278Z,98194.88
2023-01-06T16:59:49.254Z,98198.53
2023-01-06T17:03:59.019Z,98209.03
2023-01-06T17:08:05.491Z,98213.69
2023-01-06T17:12:35.224Z,98219.69
2023-01-06T17:16:42.269Z,98232.53
2023-01-06T17:20:46.644Z,98230.63
2023-01-06T17:24:50.473Z,98233.66
2023-01-06T17:28:55.550Z,98239.16
2023-01-06T17:33:00.484Z,98237.78
2023-01-06T17:37:13.467Z,98245.06
2023-01-06T17:41:20.760Z,98239.19
2023-01-06T17:45:27.040Z,98248.00
2023-01-06T17:49:39.302Z,98248.25
2023-01-06T17:53:59.758Z,98249.50
2023-01-06T17:58:04.156Z,98254.03
2023-01-06T18:02:32.713Z,98255.69
2023-01-06T18:06:40.290Z,98256.78
2023-01-06T18:18:54.202Z,98255.41
2023-01-06T18:23:02.833Z,98264.72
2023-01-06T18:27:16.125Z,98264.72
2023-01-06T18:31:23.406Z,98269.91
2023-01-06T18:35:29.333Z,98273.19
2023-01-06T18:39:40.427Z,98280.88
2023-01-06T18:43:44.346Z,98285.25
2023-01-06T18:47:54.489Z,98280.19
2023-01-06T18:51:58.515Z,98285.50
2023-01-06T18:56:05.011Z,98285.25
2023-01-06T19:00:34.433Z,98283.59
2023-01-06T19:04:38.359Z,98284.97
2023-01-06T19:08:47.121Z,98282.78
2023-01-06T19:12:51.999Z,98288.25
2023-01-06T19:16:57.007Z,98276.75
2023-01-06T19:21:03.360Z,98275.09
2023-01-06T19:25:19.242Z,98279.75
2023-01-06T19:29:31.333Z,98273.31
2023-01-06T19:33:42.635Z,98276.47
2023-01-06T19:37:47.664Z,98281.66
2023-01-06T19:41:58.416Z,98278.78
2023-01-06T19:46:20.293Z,98277.81
2023-01-06T19:50:25.536Z,98277.81
2023-01-06T19:54:30.366Z,98287.97
2023-01-06T19:58:37.459Z,98292.06
2023-01-06T20:02:46.780Z,98282.75
2023-01-06T20:06:57.310Z,98283.31
2023-01-06T20:11:02.955Z,98270.84
2023-01-06T20:15:07.008Z,98280.16
2023-01-06T20:19:14.469Z,98286.47
2023-01-06T20:23:24.388Z,98283.31
2023-01-06T20:27:27.811Z,98301.38
2023-01-06T20:35:58.352Z,98298.22
2023-01-06T20:40:10.958Z,98295.88
2023-01-06T20:44:18.867Z,98300.53
2023-01-06T20:48:22.182Z,98301.22
2023-01-06T20:52:28.249Z,98300.25
2023-01-06T20:56:31.913Z,98296.97
2023-01-06T21:00:35.631Z,98304.09
2023-01-06T21:04:40.387Z,98295.31
2023-01-06T21:08:47.979Z,98284.34
2023-01-06T21:12:54.656Z,98295.84
2023-01-06T21:16:58.593Z,98293.94
2023-01-06T21:21:02.783Z,98288.44
2023-01-06T21:25:08.587Z,98292.00
2023-01-06T21:29:13.955Z,98290.38
2023-01-06T21:33:18.983Z,98291.47
2023-01-06T21:37:28.831Z,98279.94
2023-01-06T21:41:51.333Z,98278.31
2023-01-06T21:46:06.826Z,98284.88
2023-01-06T21:50:20.812Z,98286.38
2023-01-06T21:54:24.560Z,98289.38
2023-01-06T21:58:33.478Z,98293.47
2023-01-06T22:02:38.486Z,98290.75
2023-01-06T22:06:44.837Z,98290.59
2023-01-06T22:10:48.702Z,98288.28
2023-01-06T22:14:56.362Z,98300.72
2023-01-06T22:19:00.657Z,98291.94
2023-01-06T22:23:09.622Z,98302.09
2023-01-06T22:27:14.194Z,98301.13
2023-01-06T22:31:21.249Z,98302.50
2023-01-06T22:35:26.578Z,98293.16
2023-01-06T22:39:30.083Z,98300.59
2023-01-06T22:43:35.673Z,98300.59
2023-01-06T22:47:40.144Z,98288.94
2023-01-06T22:51:44.712Z,98294.28
2023-01-06T22:55:48.151Z,98296.03
2023-01-06T22:59:51.411Z,98290.19
2023-01-06T23:03:57.478Z,98291.13
2023-01-06T23:08:00.795Z,98284.13
2023-01-06T23:12:04.270Z,98286.59
2023-01-06T23:16:10.274Z,98283.84
2023-01-06T23:20:15.505Z,98289.22
2023-01-06T23:24:18.721Z,98292.91
2023-01-06T23:28:22.107Z,98288.00
2023-01-06T23:32:25.640Z,98287.31
2023-01-06T23:36:34.294Z,98282.66
2023-01-06T23:40:37.340Z,98281.56
2023-01-06T23:44:41.000Z,98280.75
2023-01-06T23:48:45.034Z,98284.19
2023-01-06T23:52:49.732Z,98281.56
2023-01-06T23:56:52.994Z,98278.00
